sensor_id;sensor_type;location;lat;lon;timestamp;pressure;altitude;pressure_sealevel;temperature;humidity
12471;BME280;36499;46.484;13.832;2023-02-02T00:01:47;93235.19;;;1.15;70.48
12471;BME280;36499;46.484;13.832;2023-02-02T00:04:19;93219.44;;;1.10;70.62
12471;BME280;36499;46.484;13.832;2023-02-02T00:06:47;93219.09;;;1.05;70.28
12471;BME280;36499;46.484;13.832;2023-02-02T00:09:18;93222.91;;;1.01;70.64
12471;BME280;36499;46.484;13.832;2023-02-02T00:11:47;93212.88;;;1.15;70.08
12471;BME280;36499;46.484;13.832;2023-02-02T00:14:15;93223.78;;;1.09;70.70
12471;BME280;36499;46.484;13.832;2023-02-02T00:16:44;93221.16;;;1.01;70.71
12471;BME280;36499;46.484;13.832;2023-02-02T00:19:14;93220.34;;;1.01;70.10
12471;BME280;36499;46.484;13.832;2023-02-02T00:21:44;93217.19;;;0.81;71.08
12471;BME280;36499;46.484;13.832;2023-02-02T00:24:15;93213.72;;;0.90;71.07
12471;BME280;36499;46.484;13.832;2023-02-02T00:26:46;93209.56;;;1.23;69.53
12471;BME280;36499;46.484;13.832;2023-02-02T00:29:16;93208.06;;;1.12;69.02
12471;BME280;36499;46.484;13.832;2023-02-02T00:31:44;93211.41;;;1.05;69.89
12471;BME280;36499;46.484;13.832;2023-02-02T00:34:12;93213.22;;;0.86;70.34
12471;BME280;36499;46.484;13.832;2023-02-02T00:36:41;93212.06;;;0.81;71.00
12471;BME280;36499;46.484;13.832;2023-02-02T00:39:13;93201.53;;;0.92;70.37
12471;BME280;36499;46.484;13.832;2023-02-02T00:41:40;93199.94;;;0.91;70.51
12471;BME280;36499;46.484;13.832;2023-02-02T00:44:07;93200.41;;;0.86;69.82
12471;BME280;36499;46.484;13.832;2023-02-02T00:46:52;93194.84;;;0.73;70.37
12471;BME280;36499;46.484;13.832;2023-02-02T00:49:19;93198.34;;;0.64;70.50
12471;BME280;36499;46.484;13.832;2023-02-02T00:51:48;93200.88;;;0.38;71.73
12471;BME280;36499;46.484;13.832;2023-02-02T00:54:15;93195.16;;;0.44;72.14
12471;BME280;36499;46.484;13.832;2023-02-02T00:56:42;93191.34;;;0.48;72.17
12471;BME280;36499;46.484;13.832;2023-02-02T00:59:10;93183.53;;;0.58;72.14
12471;BME280;36499;46.484;13.832;2023-02-02T01:01:37;93190.28;;;0.59;71.34
12471;BME280;36499;46.484;13.832;2023-02-02T01:04:04;93182.91;;;0.56;71.56
12471;BME280;36499;46.484;13.832;2023-02-02T01:06:31;93177.50;;;0.41;71.71
12471;BME280;36499;46.484;13.832;2023-02-02T01:09:00;93180.84;;;0.42;71.10
12471;BME280;36499;46.484;13.832;2023-02-02T01:11:27;93176.19;;;0.37;71.81
12471;BME280;36499;46.484;13.832;2023-02-02T01:13:55;93188.50;;;0.34;72.24
12471;BME280;36499;46.484;13.832;2023-02-02T01:16:22;93187.78;;;0.41;72.00
12471;BME280;36499;46.484;13.832;2023-02-02T01:18:50;93187.03;;;0.57;71.09
12471;BME280;36499;46.484;13.832;2023-02-02T01:21:17;93195.78;;;0.46;71.92
12471;BME280;36499;46.484;13.832;2023-02-02T01:23:45;93192.47;;;0.54;71.56
12471;BME280;36499;46.484;13.832;2023-02-02T01:26:14;93195.91;;;0.63;71.53
12471;BME280;36499;46.484;13.832;2023-02-02T01:28:42;93187.41;;;0.62;71.19
12471;BME280;36499;46.484;13.832;2023-02-02T01:31:12;93187.41;;;0.62;71.31
12471;BME280;36499;46.484;13.832;2023-02-02T01:33:40;93180.84;;;0.60;70.79
12471;BME280;36499;46.484;13.832;2023-02-02T01:36:12;93184.72;;;0.64;70.44
12471;BME280;36499;46.484;13.832;2023-02-02T01:38:40;93177.09;;;0.54;69.94
12471;BME280;36499;46.484;13.832;2023-02-02T01:41:13;93180.09;;;0.49;70.83
12471;BME280;36499;46.484;13.832;2023-02-02T01:43:55;93172.47;;;0.58;69.54
12471;BME280;36499;46.484;13.832;2023-02-02T01:46:26;93174.47;;;0.46;70.77
12471;BME280;36499;46.484;13.832;2023-02-02T01:49:04;93182.34;;;0.44;70.67
12471;BME280;36499;46.484;13.832;2023-02-02T01:51:40;93183.41;;;0.42;71.08
12471;BME280;36499;46.484;13.832;2023-02-02T01:54:13;93173.91;;;0.52;71.05
12471;BME280;36499;46.484;13.832;2023-02-02T01:56:48;93177.03;;;0.46;71.19
12471;BME280;36499;46.484;13.832;2023-02-02T01:59:17;93164.97;;;0.38;70.33
12471;BME280;36499;46.484;13.832;2023-02-02T02:01:47;93175.41;;;0.19;70.98
12471;BME280;36499;46.484;13.832;2023-02-02T02:04:15;93173.38;;;0.23;71.19
12471;BME280;36499;46.484;13.832;2023-02-02T02:06:42;93162.44;;;0.21;70.70
12471;BME280;36499;46.484;13.832;2023-02-02T02:09:10;93156.69;;;0.19;70.86
12471;BME280;36499;46.484;13.832;2023-02-02T02:11:37;93154.63;;;0.05;71.41
12471;BME280;36499;46.484;13.832;2023-02-02T02:14:08;93159.19;;;0.11;71.44
12471;BME280;36499;46.484;13.832;2023-02-02T02:17:11;93165.31;;;0.18;71.10
12471;BME280;36499;46.484;13.832;2023-02-02T02:20:30;93163.75;;;0.25;71.15
12471;BME280;36499;46.484;13.832;2023-02-02T02:24:07;93165.44;;;0.34;70.76
12471;BME280;36499;46.484;13.832;2023-02-02T02:27:52;93169.50;;;0.19;70.12
12471;BME280;36499;46.484;13.832;2023-02-02T02:31:18;93155.72;;;0.20;70.85
12471;BME280;36499;46.484;13.832;2023-02-02T02:33:56;93150.25;;;0.15;70.06
12471;BME280;36499;46.484;13.832;2023-02-02T02:36:35;93152.31;;;-0.07;71.13
12471;BME280;36499;46.484;13.832;2023-02-02T02:39:15;93146.56;;;0.17;71.25
12471;BME280;36499;46.484;13.832;2023-02-02T02:41:48;93144.22;;;0.24;71.02
12471;BME280;36499;46.484;13.832;2023-02-02T02:44:19;93146.13;;;0.22;70.29
12471;BME280;36499;46.484;13.832;2023-02-02T02:46:48;93138.28;;;0.23;70.64
12471;BME280;36499;46.484;13.832;2023-02-02T02:49:17;93141.88;;;0.30;70.85
12471;BME280;36499;46.484;13.832;2023-02-02T02:51:47;93155.31;;;0.32;70.97
12471;BME280;36499;46.484;13.832;2023-02-02T02:54:20;93143.50;;;0.39;69.70
12471;BME280;36499;46.484;13.832;2023-02-02T02:57:20;93140.13;;;0.39;69.49
12471;BME280;36499;46.484;13.832;2023-02-02T03:00:00;93137.19;;;0.26;70.26
12471;BME280;36499;46.484;13.832;2023-02-02T03:02:39;93140.81;;;0.15;70.13
12471;BME280;36499;46.484;13.832;2023-02-02T03:05:25;93142.88;;;0.20;70.06
12471;BME280;36499;46.484;13.832;2023-02-02T03:08:05;93148.06;;;0.02;70.08
12471;BME280;36499;46.484;13.832;2023-02-02T03:10:35;93146.94;;;0.05;69.83
12471;BME280;36499;46.484;13.832;2023-02-02T03:13:08;93147.09;;;0.03;69.71
12471;BME280;36499;46.484;13.832;2023-02-02T03:15:39;93149.97;;;-0.18;71.20
12471;BME280;36499;46.484;13.832;2023-02-02T03:18:07;93150.16;;;-0.11;70.85
12471;BME280;36499;46.484;13.832;2023-02-02T03:20:35;93158.69;;;-0.28;70.96
12471;BME280;36499;46.484;13.832;2023-02-02T03:23:02;93147.84;;;-0.22;70.62
12471;BME280;36499;46.484;13.832;2023-02-02T03:25:29;93151.16;;;-0.12;70.52
12471;BME280;36499;46.484;13.832;2023-02-02T03:27:57;93147.19;;;-0.24;70.63
12471;BME280;36499;46.484;13.832;2023-02-02T03:30:25;93158.91;;;-0.22;70.49
12471;BME280;36499;46.484;13.832;2023-02-02T03:32:52;93154.00;;;-0.33;70.90
12471;BME280;36499;46.484;13.832;2023-02-02T03:35:19;93149.75;;;-0.24;70.69
12471;BME280;36499;46.484;13.832;2023-02-02T03:37:48;93148.34;;;-0.19;70.45
12471;BME280;36499;46.484;13.832;2023-02-02T03:40:15;93150.25;;;-0.21;70.20
12471;BME280;36499;46.484;13.832;2023-02-02T03:42:42;93143.72;;;-0.15;69.83
12471;BME280;36499;46.484;13.832;2023-02-02T03:45:10;93142.44;;;-0.19;69.69
12471;BME280;36499;46.484;13.832;2023-02-02T03:47:37;93144.84;;;-0.18;70.24
12471;BME280;36499;46.484;13.832;2023-02-02T03:50:06;93132.72;;;-0.16;69.18
12471;BME280;36499;46.484;13.832;2023-02-02T03:52:33;93136.41;;;-0.10;69.27
12471;BME280;36499;46.484;13.832;2023-02-02T03:55:02;93128.97;;;-0.21;69.75
12471;BME280;36499;46.484;13.832;2023-02-02T03:57:30;93126.91;;;-0.18;69.43
12471;BME280;36499;46.484;13.832;2023-02-02T03:59:57;93133.88;;;-0.28;69.50
12471;BME280;36499;46.484;13.832;2023-02-02T04:02:24;93137.59;;;-0.22;69.55
12471;BME280;36499;46.484;13.832;2023-02-02T04:04:51;93141.03;;;-0.14;69.18
12471;BME280;36499;46.484;13.832;2023-02-02T04:07:18;93138.97;;;-0.10;69.67
12471;BME280;36499;46.484;13.832;2023-02-02T04:09:45;93142.88;;;-0.24;69.44
12471;BME280;36499;46.484;13.832;2023-02-02T04:12:13;93136.34;;;-0.18;69.55
12471;BME280;36499;46.484;13.832;2023-02-02T04:14:40;93132.25;;;-0.11;69.67
12471;BME280;36499;46.484;13.832;2023-02-02T04:17:07;93122.13;;;0.05;69.21
12471;BME280;36499;46.484;13.832;2023-02-02T04:19:36;93126.91;;;0.00;68.90
12471;BME280;36499;46.484;13.832;2023-02-02T04:22:03;93118.06;;;-0.06;68.75
12471;BME280;36499;46.484;13.832;2023-02-02T04:24:30;93113.72;;;-0.05;68.65
12471;BME280;36499;46.484;13.832;2023-02-02T04:26:57;93118.13;;;0.03;68.74
12471;BME280;36499;46.484;13.832;2023-02-02T04:29:25;93111.75;;;0.07;68.43
12471;BME280;36499;46.484;13.832;2023-02-02T04:31:53;93114.81;;;-0.08;68.45
12471;BME280;36499;46.484;13.832;2023-02-02T04:34:20;93116.50;;;0.02;68.68
12471;BME280;36499;46.484;13.832;2023-02-02T04:36:47;93116.13;;;0.14;67.96
12471;BME280;36499;46.484;13.832;2023-02-02T04:39:16;93107.94;;;0.11;68.36
12471;BME280;36499;46.484;13.832;2023-02-02T04:41:43;93102.31;;;0.33;67.78
12471;BME280;36499;46.484;13.832;2023-02-02T04:44:13;93103.91;;;0.34;67.69
12471;BME280;36499;46.484;13.832;2023-02-02T04:46:43;93104.00;;;0.50;67.27
12471;BME280;36499;46.484;13.832;2023-02-02T04:49:11;93104.91;;;0.41;66.79
12471;BME280;36499;46.484;13.832;2023-02-02T04:51:39;93101.63;;;0.57;65.81
12471;BME280;36499;46.484;13.832;2023-02-02T04:54:07;93109.72;;;0.44;66.74
12471;BME280;36499;46.484;13.832;2023-02-02T04:56:34;93119.94;;;0.36;66.87
12471;BME280;36499;46.484;13.832;2023-02-02T04:59:02;93120.06;;;0.34;66.78
12471;BME280;36499;46.484;13.832;2023-02-02T05:01:29;93113.09;;;0.44;66.75
12471;BME280;36499;46.484;13.832;2023-02-02T05:03:57;93113.91;;;0.45;66.86
12471;BME280;36499;46.484;13.832;2023-02-02T05:06:24;93118.63;;;0.58;66.68
12471;BME280;36499;46.484;13.832;2023-02-02T05:08:52;93123.00;;;0.39;66.96
12471;BME280;36499;46.484;13.832;2023-02-02T05:11:21;93126.56;;;0.46;66.71
12471;BME280;36499;46.484;13.832;2023-02-02T05:13:51;93120.44;;;0.39;67.03
12471;BME280;36499;46.484;13.832;2023-02-02T05:16:20;93130.88;;;0.38;67.25
12471;BME280;36499;46.484;13.832;2023-02-02T05:18:49;93131.50;;;0.40;66.72
12471;BME280;36499;46.484;13.832;2023-02-02T05:21:18;93127.00;;;0.42;66.69
12471;BME280;36499;46.484;13.832;2023-02-02T05:23:45;93128.31;;;0.46;66.90
12471;BME280;36499;46.484;13.832;2023-02-02T05:26:16;93130.31;;;0.52;66.46
12471;BME280;36499;46.484;13.832;2023-02-02T05:28:44;93142.81;;;0.55;66.21
12471;BME280;36499;46.484;13.832;2023-02-02T05:31:11;93124.94;;;0.71;66.14
12471;BME280;36499;46.484;13.832;2023-02-02T05:33:38;93120.78;;;0.70;65.92
12471;BME280;36499;46.484;13.832;2023-02-02T05:36:06;93123.38;;;0.78;65.75
12471;BME280;36499;46.484;13.832;2023-02-02T05:38:35;93123.28;;;0.96;65.81
12471;BME280;36499;46.484;13.832;2023-02-02T05:41:03;93127.94;;;0.92;65.57
12471;BME280;36499;46.484;13.832;2023-02-02T05:43:32;93129.63;;;0.76;66.06
12471;BME280;36499;46.484;13.832;2023-02-02T05:45:59;93123.25;;;0.80;66.13
12471;BME280;36499;46.484;13.832;2023-02-02T05:48:27;93118.88;;;0.80;65.93
12471;BME280;36499;46.484;13.832;2023-02-02T05:51:00;93116.56;;;0.95;64.95
12471;BME280;36499;46.484;13.832;2023-02-02T05:53:29;93116.78;;;1.10;65.40
12471;BME280;36499;46.484;13.832;2023-02-02T05:55:58;93121.44;;;1.14;64.84
12471;BME280;36499;46.484;13.832;2023-02-02T05:58:25;93125.94;;;1.12;65.46
12471;BME280;36499;46.484;13.832;2023-02-02T06:00:54;93125.44;;;1.09;64.93
12471;BME280;36499;46.484;13.832;2023-02-02T06:03:21;93121.88;;;1.02;65.02
12471;BME280;36499;46.484;13.832;2023-02-02T06:05:48;93119.00;;;1.05;65.07
12471;BME280;36499;46.484;13.832;2023-02-02T06:08:16;93132.22;;;1.18;64.76
12471;BME280;36499;46.484;13.832;2023-02-02T06:10:43;93127.09;;;1.18;64.38
12471;BME280;36499;46.484;13.832;2023-02-02T06:13:11;93130.91;;;1.14;64.54
12471;BME280;36499;46.484;13.832;2023-02-02T06:15:38;93121.44;;;1.14;64.68
12471;BME280;36499;46.484;13.832;2023-02-02T06:18:06;93129.00;;;1.24;64.07
12471;BME280;36499;46.484;13.832;2023-02-02T06:20:34;93138.53;;;1.39;63.20
12471;BME280;36499;46.484;13.832;2023-02-02T06:23:02;93131.94;;;1.37;63.05
12471;BME280;36499;46.484;13.832;2023-02-02T06:25:29;93136.78;;;1.48;63.02
12471;BME280;36499;46.484;13.832;2023-02-02T06:27:57;93142.41;;;1.43;62.39
12471;BME280;36499;46.484;13.832;2023-02-02T06:30:26;93148.16;;;1.45;63.17
12471;BME280;36499;46.484;13.832;2023-02-02T06:32:53;93140.78;;;1.42;62.79
12471;BME280;36499;46.484;13.832;2023-02-02T06:35:21;93158.28;;;1.39;63.09
12471;BME280;36499;46.484;13.832;2023-02-02T06:37:48;93149.31;;;1.51;63.17
12471;BME280;36499;46.484;13.832;2023-02-02T06:40:16;93150.72;;;1.37;63.29
12471;BME280;36499;46.484;13.832;2023-02-02T06:42:44;93146.56;;;1.36;63.62
12471;BME280;36499;46.484;13.832;2023-02-02T06:45:11;93136.31;;;1.44;63.00
12471;BME280;36499;46.484;13.832;2023-02-02T06:47:40;93129.22;;;1.38;63.34
12471;BME280;36499;46.484;13.832;2023-02-02T06:50:08;93129.38;;;1.37;62.70
12471;BME280;36499;46.484;13.832;2023-02-02T06:52:35;93144.50;;;1.48;62.99
12471;BME280;36499;46.484;13.832;2023-02-02T06:55:03;93159.91;;;1.48;63.28
12471;BME280;36499;46.484;13.832;2023-02-02T06:57:30;93173.53;;;1.49;63.13
12471;BME280;36499;46.484;13.832;2023-02-02T06:59:57;93176.63;;;1.52;63.03
12471;BME280;36499;46.484;13.832;2023-02-02T07:02:24;93179.84;;;1.62;62.91
12471;BME280;36499;46.484;13.832;2023-02-02T07:04:53;93178.22;;;1.61;62.45
12471;BME280;36499;46.484;13.832;2023-02-02T07:07:20;93189.91;;;1.48;63.05
12471;BME280;36499;46.484;13.832;2023-02-02T07:09:47;93193.81;;;1.60;62.42
12471;BME280;36499;46.484;13.832;2023-02-02T07:12:14;93197.25;;;1.84;62.31
12471;BME280;36499;46.484;13.832;2023-02-02T07:14:43;93194.66;;;1.84;62.22
12471;BME280;36499;46.484;13.832;2023-02-02T07:17:11;93187.28;;;1.81;62.41
12471;BME280;36499;46.484;13.832;2023-02-02T07:19:38;93177.31;;;1.78;61.61
12471;BME280;36499;46.484;13.832;2023-02-02T07:22:06;93183.25;;;1.87;61.91
12471;BME280;36499;46.484;13.832;2023-02-02T07:24:34;93185.31;;;1.75;62.14
12471;BME280;36499;46.484;13.832;2023-02-02T07:27:03;93188.38;;;1.79;62.53
12471;BME280;36499;46.484;13.832;2023-02-02T07:29:30;93195.31;;;1.86;62.37
12471;BME280;36499;46.484;13.832;2023-02-02T07:31:57;93195.00;;;2.06;61.77
12471;BME280;36499;46.484;13.832;2023-02-02T07:34:24;93200.16;;;2.14;61.85
12471;BME280;36499;46.484;13.832;2023-02-02T07:36:52;93203.06;;;2.11;62.25
12471;BME280;36499;46.484;13.832;2023-02-02T07:39:20;93201.13;;;2.21;61.80
12471;BME280;36499;46.484;13.832;2023-02-02T07:41:47;93192.63;;;2.36;61.32
12471;BME280;36499;46.484;13.832;2023-02-02T07:44:15;93199.72;;;2.42;61.44
12471;BME280;36499;46.484;13.832;2023-02-02T07:46:43;93210.63;;;2.53;60.98
12471;BME280;36499;46.484;13.832;2023-02-02T07:49:13;93200.81;;;2.56;60.53
12471;BME280;36499;46.484;13.832;2023-02-02T07:51:41;93204.34;;;2.63;60.33
12471;BME280;36499;46.484;13.832;2023-02-02T07:54:08;93204.19;;;2.81;60.89
12471;BME280;36499;46.484;13.832;2023-02-02T07:56:38;93214.78;;;2.78;60.13
12471;BME280;36499;46.484;13.832;2023-02-02T07:59:05;93211.03;;;3.05;59.51
12471;BME280;36499;46.484;13.832;2023-02-02T08:01:32;93213.59;;;3.13;59.73
12471;BME280;36499;46.484;13.832;2023-02-02T08:03:59;93216.66;;;3.08;58.92
12471;BME280;36499;46.484;13.832;2023-02-02T08:06:31;93211.00;;;3.21;58.55
12471;BME280;36499;46.484;13.832;2023-02-02T08:09:01;93202.94;;;3.32;57.50
12471;BME280;36499;46.484;13.832;2023-02-02T08:11:30;93211.44;;;3.41;57.79
12471;BME280;36499;46.484;13.832;2023-02-02T08:14:01;93196.13;;;3.39;57.55
12471;BME280;36499;46.484;13.832;2023-02-02T08:16:30;93204.53;;;3.33;57.54
12471;BME280;36499;46.484;13.832;2023-02-02T08:18:58;93217.88;;;3.45;57.26
12471;BME280;36499;46.484;13.832;2023-02-02T08:21:26;93218.81;;;3.52;57.48
12471;BME280;36499;46.484;13.832;2023-02-02T08:23:53;93206.31;;;3.71;56.81
12471;BME280;36499;46.484;13.832;2023-02-02T08:26:23;93197.50;;;3.88;55.96
12471;BME280;36499;46.484;13.832;2023-02-02T08:28:53;93205.16;;;4.05;57.08
12471;BME280;36499;46.484;13.832;2023-02-02T08:31:27;93195.91;;;4.41;55.13
12471;BME280;36499;46.484;13.832;2023-02-02T08:33:55;93208.97;;;4.62;55.13
12471;BME280;36499;46.484;13.832;2023-02-02T08:36:25;93183.81;;;4.79;53.24
12471;BME280;36499;46.484;13.832;2023-02-02T08:38:53;93195.34;;;5.06;52.56
12471;BME280;36499;46.484;13.832;2023-02-02T08:41:22;93180.81;;;5.34;53.78
12471;BME280;36499;46.484;13.832;2023-02-02T08:43:50;93174.38;;;5.59;51.87
12471;BME280;36499;46.484;13.832;2023-02-02T08:46:19;93177.56;;;5.76;51.17
12471;BME280;36499;46.484;13.832;2023-02-02T08:48:47;93180.16;;;5.91;51.28
12471;BME280;36499;46.484;13.832;2023-02-02T08:51:18;93180.19;;;6.12;50.74
12471;BME280;36499;46.484;13.832;2023-02-02T08:53:46;93192.75;;;6.15;50.05
12471;BME280;36499;46.484;13.832;2023-02-02T08:56:17;93187.72;;;6.28;49.57
12471;BME280;36499;46.484;13.832;2023-02-02T08:58:46;93192.53;;;6.31;49.33
12471;BME280;36499;46.484;13.832;2023-02-02T09:01:17;93187.97;;;6.33;49.89
12471;BME280;36499;46.484;13.832;2023-02-02T09:03:44;93189.78;;;6.54;49.38
12471;BME280;36499;46.484;13.832;2023-02-02T09:06:16;93188.09;;;6.67;48.87
12471;BME280;36499;46.484;13.832;2023-02-02T09:08:45;93188.09;;;6.67;48.47
12471;BME280;36499;46.484;13.832;2023-02-02T09:11:15;93199.41;;;6.88;48.36
12471;BME280;36499;46.484;13.832;2023-02-02T09:13:46;93203.59;;;6.89;48.12
12471;BME280;36499;46.484;13.832;2023-02-02T09:16:16;93211.06;;;6.98;47.79
12471;BME280;36499;46.484;13.832;2023-02-02T09:18:44;93210.50;;;7.03;47.96
12471;BME280;36499;46.484;13.832;2023-02-02T09:21:15;93218.38;;;7.16;47.64
12471;BME280;36499;46.484;13.832;2023-02-02T09:23:45;93212.84;;;7.26;47.40
12471;BME280;36499;46.484;13.832;2023-02-02T09:26:15;93219.91;;;7.38;47.53
12471;BME280;36499;46.484;13.832;2023-02-02T09:28:46;93208.16;;;7.42;47.13
12471;BME280;36499;46.484;13.832;2023-02-02T09:31:14;93212.81;;;7.53;46.29
12471;BME280;36499;46.484;13.832;2023-02-02T09:33:42;93212.75;;;7.75;46.40
12471;BME280;36499;46.484;13.832;2023-02-02T09:36:14;93207.91;;;8.06;46.33
12471;BME280;36499;46.484;13.832;2023-02-02T09:38:43;93212.31;;;8.18;45.87
12471;BME280;36499;46.484;13.832;2023-02-02T09:44:55;93222.97;;;8.30;44.56
12471;BME280;36499;46.484;13.832;2023-02-02T09:47:29;93228.97;;;8.37;44.41
12471;BME280;36499;46.484;13.832;2023-02-02T09:50:04;93226.84;;;8.47;43.97
12471;BME280;36499;46.484;13.832;2023-02-02T09:52:41;93221.88;;;8.59;43.67
12471;BME280;36499;46.484;13.832;2023-02-02T09:55:15;93223.88;;;8.77;43.02
12471;BME280;36499;46.484;13.832;2023-02-02T09:57:51;93228.91;;;8.78;43.28
12471;BME280;36499;46.484;13.832;2023-02-02T10:00:29;93237.09;;;8.82;43.05
12471;BME280;36499;46.484;13.832;2023-02-02T10:03:02;93236.47;;;8.66;42.39
12471;BME280;36499;46.484;13.832;2023-02-02T10:05:48;93242.50;;;9.00;43.24
12471;BME280;36499;46.484;13.832;2023-02-02T10:08:26;93240.09;;;8.79;42.04
12471;BME280;36499;46.484;13.832;2023-02-02T10:10:59;93247.09;;;8.91;43.25
12471;BME280;36499;46.484;13.832;2023-02-02T10:13:32;93243.47;;;8.73;42.56
12471;BME280;36499;46.484;13.832;2023-02-02T10:16:09;93245.47;;;8.84;42.64
12471;BME280;36499;46.484;13.832;2023-02-02T10:18:45;93239.50;;;8.90;42.37
12471;BME280;36499;46.484;13.832;2023-02-02T10:21:24;93221.13;;;9.04;43.24
12471;BME280;36499;46.484;13.832;2023-02-02T10:23:54;93231.53;;;9.04;43.24
12471;BME280;36499;46.484;13.832;2023-02-02T10:26:30;93248.13;;;8.97;42.33
12471;BME280;36499;46.484;13.832;2023-02-02T10:29:14;93227.53;;;9.08;42.17
12471;BME280;36499;46.484;13.832;2023-02-02T10:31:49;93223.91;;;9.23;42.20
12471;BME280;36499;46.484;13.832;2023-02-02T10:34:27;93225.50;;;9.37;42.24
12471;BME280;36499;46.484;13.832;2023-02-02T10:37:26;93223.88;;;9.55;42.14
12471;BME280;36499;46.484;13.832;2023-02-02T10:40:16;93228.44;;;9.67;41.29
12471;BME280;36499;46.484;13.832;2023-02-02T10:43:12;93237.72;;;9.43;42.41
12471;BME280;36499;46.484;13.832;2023-02-02T10:46:02;93240.72;;;9.20;43.19
12471;BME280;36499;46.484;13.832;2023-02-02T10:48:34;93227.13;;;9.31;42.81
12471;BME280;36499;46.484;13.832;2023-02-02T10:51:10;93229.47;;;9.52;42.11
12471;BME280;36499;46.484;13.832;2023-02-02T10:53:51;93221.09;;;9.50;42.50
12471;BME280;36499;46.484;13.832;2023-02-02T10:56:26;93227.09;;;9.38;42.14
12471;BME280;36499;46.484;13.832;2023-02-02T10:59:04;93233.09;;;9.25;43.27
12471;BME280;36499;46.484;13.832;2023-02-02T11:01:32;93237.09;;;9.14;43.56
12471;BME280;36499;46.484;13.832;2023-02-02T11:03:59;93227.50;;;9.15;43.02
12471;BME280;36499;46.484;13.832;2023-02-02T11:06:44;93224.72;;;9.17;43.10
12471;BME280;36499;46.484;13.832;2023-02-02T11:09:24;93211.09;;;9.14;43.49
12471;BME280;36499;46.484;13.832;2023-02-02T11:12:03;93208.09;;;8.98;42.98
12471;BME280;36499;46.484;13.832;2023-02-02T11:14:39;93190.91;;;8.97;43.59
12471;BME280;36499;46.484;13.832;2023-02-02T11:17:20;93188.50;;;8.89;43.64
12471;BME280;36499;46.484;13.832;2023-02-02T11:19:48;93176.31;;;9.09;43.60
12471;BME280;36499;46.484;13.832;2023-02-02T11:22:29;93155.47;;;9.22;43.46
12471;BME280;36499;46.484;13.832;2023-02-02T11:25:01;93157.84;;;9.43;43.81
12471;BME280;36499;46.484;13.832;2023-02-02T11:27:37;93160.06;;;9.33;42.88
12471;BME280;36499;46.484;13.832;2023-02-02T11:30:20;93165.88;;;9.35;42.91
12471;BME280;36499;46.484;13.832;2023-02-02T11:32:47;93163.78;;;9.63;42.74
12471;BME280;36499;46.484;13.832;2023-02-02T11:35:22;93164.91;;;9.87;42.75
12471;BME280;36499;46.484;13.832;2023-02-02T11:37:59;93165.25;;;10.04;42.85
12471;BME280;36499;46.484;13.832;2023-02-02T11:40:36;93160.06;;;10.04;42.12
12471;BME280;36499;46.484;13.832;2023-02-02T11:43:18;93165.81;;;10.12;41.61
12471;BME280;36499;46.484;13.832;2023-02-02T11:45:52;93161.09;;;9.96;41.31
12471;BME280;36499;46.484;13.832;2023-02-02T11:48:25;93174.03;;;10.16;42.52
12471;BME280;36499;46.484;13.832;2023-02-02T11:50:57;93177.91;;;9.94;41.83
12471;BME280;36499;46.484;13.832;2023-02-02T11:53:29;93184.63;;;9.70;41.25
12471;BME280;36499;46.484;13.832;2023-02-02T11:56:01;93176.38;;;9.80;41.46
12471;BME280;36499;46.484;13.832;2023-02-02T11:58:44;93179.03;;;9.53;41.73
12471;BME280;36499;46.484;13.832;2023-02-02T12:01:24;93170.03;;;9.49;42.24
12471;BME280;36499;46.484;13.832;2023-02-02T12:03:54;93165.41;;;9.64;43.09
12471;BME280;36499;46.484;13.832;2023-02-02T12:06:24;93173.84;;;9.53;42.45
12471;BME280;36499;46.484;13.832;2023-02-02T12:08:57;93157.84;;;10.01;41.86
12471;BME280;36499;46.484;13.832;2023-02-02T12:11:43;93147.50;;;9.88;40.91
12471;BME280;36499;46.484;13.832;2023-02-02T12:14:31;93156.97;;;9.62;41.54
12471;BME280;36499;46.484;13.832;2023-02-02T12:17:14;93158.22;;;10.11;41.36
12471;BME280;36499;46.484;13.832;2023-02-02T12:20:11;93154.81;;;10.10;40.44
12471;BME280;36499;46.484;13.832;2023-02-02T12:23:03;93146.00;;;10.11;40.86
12471;BME280;36499;46.484;13.832;2023-02-02T12:25:52;93156.03;;;10.15;40.60
12471;BME280;36499;46.484;13.832;2023-02-02T12:28:41;93165.16;;;9.79;41.04
12471;BME280;36499;46.484;13.832;2023-02-02T12:31:25;93160.16;;;9.78;41.14
12471;BME280;36499;46.484;13.832;2023-02-02T12:34:04;93165.16;;;9.79;41.99
12471;BME280;36499;46.484;13.832;2023-02-02T12:36:49;93148.78;;;10.10;44.12
12471;BME280;36499;46.484;13.832;2023-02-02T12:39:32;93139.19;;;10.10;43.33
12471;BME280;36499;46.484;13.832;2023-02-02T12:42:40;93141.81;;;10.04;41.59
12471;BME280;36499;46.484;13.832;2023-02-02T12:45:41;93146.56;;;10.13;42.25
12471;BME280;36499;46.484;13.832;2023-02-02T12:48:30;93137.38;;;10.11;43.20
12471;BME280;36499;46.484;13.832;2023-02-02T12:51:20;93145.19;;;10.18;41.77
12471;BME280;36499;46.484;13.832;2023-02-02T12:54:19;93158.53;;;10.34;41.90
12471;BME280;36499;46.484;13.832;2023-02-02T12:56:56;93149.81;;;10.47;42.48
12471;BME280;36499;46.484;13.832;2023-02-02T13:00:06;93140.22;;;10.03;43.54
12471;BME280;36499;46.484;13.832;2023-02-02T13:02:51;93154.53;;;9.81;43.11
12471;BME280;36499;46.484;13.832;2023-02-02T13:05:43;93155.97;;;9.63;43.74
12471;BME280;36499;46.484;13.832;2023-02-02T13:08:24;93151.59;;;9.57;42.47
12471;BME280;36499;46.484;13.832;2023-02-02T13:10:59;93156.31;;;9.87;42.78
12471;BME280;36499;46.484;13.832;2023-02-02T13:13:35;93161.03;;;9.45;44.15
12471;BME280;36499;46.484;13.832;2023-02-02T13:16:08;93155.97;;;9.70;43.08
12471;BME280;36499;46.484;13.832;2023-02-02T13:18:41;93158.22;;;9.53;44.18
12471;BME280;36499;46.484;13.832;2023-02-02T13:21:18;93159.09;;;9.28;45.23
12471;BME280;36499;46.484;13.832;2023-02-02T13:23:50;93163.84;;;9.37;43.39
12471;BME280;36499;46.484;13.832;2023-02-02T13:26:19;93169.84;;;9.44;43.97
12471;BME280;36499;46.484;13.832;2023-02-02T13:28:52;93170.66;;;9.38;42.25
12471;BME280;36499;46.484;13.832;2023-02-02T13:31:29;93168.66;;;9.40;42.80